KMFI/MFI METAR and TAF weather

Enter ICAO airport designator
Station Type Date Time Source
KMFI METAR 2020/11/25 22:13 UTC NOAA

KMFI 252213Z AUTO 02004KT 10SM FEW006 OVC011 02/M01 A2983 RMK AO2 T00171006


Station Type Date Time Source
KMFI Decoded METAR 2020/11/25 22:13 UTC NOAA

MARSHFIELD MUNICIPAL AIRPORT, WI, United States (KMFI) 44-38N 90-11W 379M
Nov 25, 2020 - 05:13 PM EST / 2020.11.25 2213 UTC
Wind: from the NNE (020 degrees) at 5 MPH (4 KT):0
Visibility: 10 mile(s):0
Sky conditions: overcast
Temperature: 35.1 F (1.7 C)
Dew Point: 30.9 F (-0.6 C)
Relative Humidity: 84%
Pressure (altimeter): 29.83 in. Hg (1010 hPa)
ob: KMFI 252213Z AUTO 02004KT 10SM FEW006 OVC011 02/M01 A2983 RMK AO2 T00171006
cycle: 22

Station Type Date Time Source
KMFI TAF UTC NOAA

Error!

Example: see airport list